Rixford, Vermont
Current Conditions -  °F | °C
As of 11:35 AM on Friday 28 Nov 2014 (Local Time) from KFSO Reporting Station
Overcast Overcast  
Wind Chill: 19°   Ceiling: 2900
Heat Index: 26°   Visibility: 10mi
Dew Point: 15°   Wind: 6mph
Humidity: 64%   Direction: 290°WNW
Pressure: 30.1"   Gusts: NA
Location:  44.958°N, 72.9958°W
Report Text: KFSO 281635Z AUTO 29005KT 10SM BKN029 OVC035 M03/M09 A3010 RMK AO2 T10331093
Loading
Personal Weather Stations






























Interactive Weather Map New forecast layout! Learn more

10-Day Weather Forecast

Advertisements
Track Severe Weather on mobile